Du har inga inställningar för hoppväder.nu

Hoppväder.nu

Senast uppdaterat 23:54

UTC-tid

2020-10-19 kl. 21:54


Sol och måne

Solen går upp 8:02 och går ner 18:22 (beräknade cirkatider)
Nästa fullmåne blir om 12 dagar (2020-10-31)

METAR

ESSD (Borlänge)
(34 minuter sedan)
ESSD 192120Z AUTO 26005KT 9999 NCD M04/M05 Q1016=



ESOE (Örebro)
(34 minuter sedan)
ESOE 192120Z AUTO 21004KT 9999 NCD 01/M02 Q1017=



ESOW (Västerås)
(34 minuter sedan)
ESOW 192120Z AUTO VRB02KT 9999 NCD M02/M06 Q1017=



ESOK (Karlstad)
(34 minuter sedan)
ESOK 192120Z AUTO 28001KT 9999 NCD 00/M01 Q1017=






TAF

ESSD (Borlänge)
ESSD



ESOE (Örebro)
(264 minuter sedan)
ESOE 191730Z 1918/1922 25003KT CAVOK=



ESOW (Västerås)
ESOW



ESOK (Karlstad)
ESOK





Kodnycklar till TAF och METAR






LHP

(Borlänge är område se34c i Delområde 1)





Preliminär prognos

ÖVERSIKTLIG PROGNOS FÖR OMRÅDE se3 UTFÄRDAD 191330
GÄLLANDE DEN 20 OKTOBER 2020 MELLAN 04 OCH 16 UTC


Väderöversikt
En varmfront rör sig långsamt åt nordost.


Delområde se34


Sikt/Väder/Moln
04-08UTC: Område se34f: Sikt 5km - >8km i regnskurar. Molnbas 1500ft - >2000ft.
Område se34c: Sikt >8km. Molnbas >2000ft.
Område se34e,se34d: Sikt <1.5km - >8km i snöfall, snöblandat regn, regn. Molnbas 500ft - >2000ft.

04-12UTC: Område se34b,se34a: Sikt 5km - >8km i regnskurar. Molnbas 1500ft - >2000ft.

08-12UTC: Område se34f: Sikt 1.5km - >8km i snöfall, snöblandat regn, regn. Molnbas 500ft - >2000ft.
Område se34c: Sikt <1.5km - >8km i snöfall, snöblandat regn. Molnbas <500ft - >2000ft.

08-16UTC: Område se34e,se34d: Sikt <1.5km - >8km i snöfall, snöblandat regn, regn. Molnbas <500ft - >2000ft.

12-16UTC: Område se34a,se34f: Sikt <1.5km - >8km i duggregn, snöfall, snöblandat regn, regn. Molnbas <500ft - >2000ft.
Område se34b: Sikt 1.5km - >8km i duggregn, snöfall, snöblandat regn, regn. Molnbas 500ft - >2000ft.
Område se34c: Sikt <1.5km - >8km i snöfall, snöblandat regn, regn. Molnbas <500ft - >2000ft.


CB/TCU Moln
04-08UTC: Område se34f: TCU

04-12UTC: Område se34b,se34a: TCU

04-16UTC: Område se34e,se34d,se34c: Väntas inte förekomma under perioden

08-16UTC: Område se34f: Väntas inte förekomma under perioden

12-16UTC: Område se34b,se34a: Väntas inte förekomma under perioden


Vind vid marken
04-08UTC: Område se34a: NV/1-10 knop, byar upp till 16 knop.
Område se34d,se34c: Lugnt.
Område se34b: NV/1-15 knop, byar upp till 22 knop.
Område se34f: V/0-5 knop.

04-12UTC: Område se34e: Lugnt.

08-12UTC: Område se34a: SV-V/0-4 knop.
Område se34c: SO/0-4 knop.
Område se34f: Lugnt.
Område se34b: V-NV/0-6 knop, byar upp till 11 knop.
Område se34d: SO/1-5 knop, byar upp till 13 knop.

12-16UTC: Område se34a: SO-S/2-11 knop, byar upp till 15 knop.
Område se34c: SO/2-9 knop, byar upp till 17 knop.
Område se34b: S/1-9 knop, byar upp till 13 knop.
Område se34f: SO/1-7 knop.
Område se34e: SO/2-6 knop, byar upp till 13 knop.
Område se34d: SO/3-8 knop, byar upp till 17 knop.








Spotting

Hur fungerar spotthjälpen och Vindkartan?

Markvind är ca 0 m/s.



Vindkartan

Senast uppdaterad 23:54




All data kommer från LFV.se